sensor_id;sensor_type;location;lat;lon;timestamp;P1;durP1;ratioP1;P2;durP2;ratioP2
56712;SDS011;42589;45.536;9.032;2023-02-28T00:00:56;11.73;;;8.90;;
56712;SDS011;42589;45.536;9.032;2023-02-28T00:03:57;10.73;;;8.48;;
56712;SDS011;42589;45.536;9.032;2023-02-28T00:06:58;10.02;;;8.93;;
56712;SDS011;42589;45.536;9.032;2023-02-28T00:09:59;12.90;;;9.05;;
56712;SDS011;42589;45.536;9.032;2023-02-28T00:13:02;10.88;;;8.65;;
56712;SDS011;42589;45.536;9.032;2023-02-28T00:16:15;10.82;;;7.90;;
56712;SDS011;42589;45.536;9.032;2023-02-28T00:19:20;10.15;;;8.00;;
56712;SDS011;42589;45.536;9.032;2023-02-28T00:22:22;8.63;;;7.72;;
56712;SDS011;42589;45.536;9.032;2023-02-28T00:25:26;8.43;;;7.35;;
56712;SDS011;42589;45.536;9.032;2023-02-28T00:28:27;8.82;;;7.35;;
56712;SDS011;42589;45.536;9.032;2023-02-28T00:31:28;9.23;;;7.80;;
56712;SDS011;42589;45.536;9.032;2023-02-28T00:34:29;9.65;;;8.32;;
56712;SDS011;42589;45.536;9.032;2023-02-28T00:37:30;9.85;;;8.77;;
56712;SDS011;42589;45.536;9.032;2023-02-28T00:40:31;9.88;;;8.23;;
56712;SDS011;42589;45.536;9.032;2023-02-28T00:43:33;10.18;;;9.07;;
56712;SDS011;42589;45.536;9.032;2023-02-28T00:46:35;9.60;;;8.60;;
56712;SDS011;42589;45.536;9.032;2023-02-28T00:49:35;13.55;;;9.13;;
56712;SDS011;42589;45.536;9.032;2023-02-28T00:52:36;10.52;;;9.10;;
56712;SDS011;42589;45.536;9.032;2023-02-28T00:55:38;11.30;;;9.70;;
56712;SDS011;42589;45.536;9.032;2023-02-28T00:58:39;10.48;;;9.45;;
56712;SDS011;42589;45.536;9.032;2023-02-28T01:01:40;12.00;;;9.77;;
56712;SDS011;42589;45.536;9.032;2023-02-28T01:04:41;11.80;;;10.00;;
56712;SDS011;42589;45.536;9.032;2023-02-28T01:07:42;11.25;;;9.32;;
56712;SDS011;42589;45.536;9.032;2023-02-28T01:10:43;11.15;;;9.30;;
56712;SDS011;42589;45.536;9.032;2023-02-28T01:13:47;13.57;;;10.80;;
56712;SDS011;42589;45.536;9.032;2023-02-28T01:16:48;12.88;;;10.82;;
56712;SDS011;42589;45.536;9.032;2023-02-28T01:19:49;11.98;;;10.70;;
56712;SDS011;42589;45.536;9.032;2023-02-28T01:22:53;13.13;;;11.75;;
56712;SDS011;42589;45.536;9.032;2023-02-28T01:25:54;13.70;;;11.57;;
56712;SDS011;42589;45.536;9.032;2023-02-28T01:28:55;12.40;;;11.10;;
56712;SDS011;42589;45.536;9.032;2023-02-28T01:31:59;13.35;;;11.18;;
56712;SDS011;42589;45.536;9.032;2023-02-28T01:35:00;12.10;;;10.80;;
56712;SDS011;42589;45.536;9.032;2023-02-28T01:38:01;11.95;;;10.75;;
56712;SDS011;42589;45.536;9.032;2023-02-28T01:41:03;12.40;;;11.10;;
56712;SDS011;42589;45.536;9.032;2023-02-28T01:44:06;13.93;;;12.02;;
56712;SDS011;42589;45.536;9.032;2023-02-28T01:47:38;12.75;;;11.45;;
56712;SDS011;42589;45.536;9.032;2023-02-28T01:50:43;13.70;;;11.85;;
56712;SDS011;42589;45.536;9.032;2023-02-28T01:53:46;15.38;;;11.10;;
56712;SDS011;42589;45.536;9.032;2023-02-28T01:56:56;13.95;;;12.55;;
56712;SDS011;42589;45.536;9.032;2023-02-28T02:00:03;14.35;;;12.05;;
56712;SDS011;42589;45.536;9.032;2023-02-28T02:03:10;15.18;;;11.90;;
56712;SDS011;42589;45.536;9.032;2023-02-28T02:06:14;13.68;;;12.25;;
56712;SDS011;42589;45.536;9.032;2023-02-28T02:09:15;14.40;;;12.10;;
56712;SDS011;42589;45.536;9.032;2023-02-28T02:26:38;14.30;;;12.27;;
56712;SDS011;42589;45.536;9.032;2023-02-28T02:39:40;13.95;;;12.25;;
56712;SDS011;42589;45.536;9.032;2023-02-28T02:42:51;14.32;;;11.73;;
56712;SDS011;42589;45.536;9.032;2023-02-28T02:46:05;15.00;;;12.30;;
56712;SDS011;42589;45.536;9.032;2023-02-28T02:49:48;15.27;;;11.85;;
56712;SDS011;42589;45.536;9.032;2023-02-28T02:52:45;14.23;;;11.80;;
56712;SDS011;42589;45.536;9.032;2023-02-28T02:55:51;15.95;;;11.93;;
56712;SDS011;42589;45.536;9.032;2023-02-28T02:58:54;15.80;;;10.82;;
56712;SDS011;42589;45.536;9.032;2023-02-28T03:02:03;14.32;;;11.00;;
56712;SDS011;42589;45.536;9.032;2023-02-28T03:05:08;13.02;;;10.60;;
56712;SDS011;42589;45.536;9.032;2023-02-28T03:08:16;15.07;;;10.48;;
56712;SDS011;42589;45.536;9.032;2023-02-28T03:11:17;14.20;;;11.00;;
56712;SDS011;42589;45.536;9.032;2023-02-28T03:21:31;13.95;;;10.60;;
56712;SDS011;42589;45.536;9.032;2023-02-28T03:28:05;12.25;;;10.38;;
56712;SDS011;42589;45.536;9.032;2023-02-28T03:37:29;14.00;;;10.77;;
56712;SDS011;42589;45.536;9.032;2023-02-28T03:40:35;15.30;;;11.40;;
56712;SDS011;42589;45.536;9.032;2023-02-28T03:43:39;13.10;;;10.80;;
56712;SDS011;42589;45.536;9.032;2023-02-28T03:46:45;13.73;;;10.95;;
56712;SDS011;42589;45.536;9.032;2023-02-28T03:53:08;15.40;;;11.02;;
56712;SDS011;42589;45.536;9.032;2023-02-28T03:56:32;17.65;;;10.73;;
56712;SDS011;42589;45.536;9.032;2023-02-28T03:59:47;15.65;;;11.13;;
56712;SDS011;42589;45.536;9.032;2023-02-28T04:02:53;15.00;;;11.02;;
56712;SDS011;42589;45.536;9.032;2023-02-28T04:05:55;15.95;;;11.57;;
56712;SDS011;42589;45.536;9.032;2023-02-28T04:08:57;16.65;;;12.32;;
56712;SDS011;42589;45.536;9.032;2023-02-28T04:11:59;16.63;;;11.30;;
56712;SDS011;42589;45.536;9.032;2023-02-28T04:15:00;14.07;;;11.30;;
56712;SDS011;42589;45.536;9.032;2023-02-28T04:18:02;14.35;;;10.90;;
56712;SDS011;42589;45.536;9.032;2023-02-28T04:21:04;15.40;;;10.98;;
56712;SDS011;42589;45.536;9.032;2023-02-28T04:24:05;14.82;;;10.93;;
56712;SDS011;42589;45.536;9.032;2023-02-28T04:27:08;14.23;;;11.43;;
56712;SDS011;42589;45.536;9.032;2023-02-28T04:30:09;15.75;;;10.90;;
56712;SDS011;42589;45.536;9.032;2023-02-28T04:33:11;15.32;;;11.10;;
56712;SDS011;42589;45.536;9.032;2023-02-28T04:36:11;15.02;;;11.50;;
56712;SDS011;42589;45.536;9.032;2023-02-28T04:39:14;13.32;;;11.40;;
56712;SDS011;42589;45.536;9.032;2023-02-28T04:42:15;18.70;;;11.90;;
56712;SDS011;42589;45.536;9.032;2023-02-28T04:45:16;14.02;;;11.05;;
56712;SDS011;42589;45.536;9.032;2023-02-28T04:48:19;13.32;;;11.13;;
56712;SDS011;42589;45.536;9.032;2023-02-28T04:51:21;14.90;;;10.82;;
56712;SDS011;42589;45.536;9.032;2023-02-28T04:54:22;15.68;;;11.20;;
56712;SDS011;42589;45.536;9.032;2023-02-28T04:57:23;13.10;;;10.80;;
56712;SDS011;42589;45.536;9.032;2023-02-28T05:00:24;14.30;;;11.40;;
56712;SDS011;42589;45.536;9.032;2023-02-28T05:03:25;14.18;;;11.32;;
56712;SDS011;42589;45.536;9.032;2023-02-28T05:06:26;14.00;;;11.27;;
56712;SDS011;42589;45.536;9.032;2023-02-28T05:09:28;14.88;;;11.20;;
56712;SDS011;42589;45.536;9.032;2023-02-28T05:15:35;14.90;;;12.27;;
56712;SDS011;42589;45.536;9.032;2023-02-28T05:18:37;14.38;;;11.38;;
56712;SDS011;42589;45.536;9.032;2023-02-28T05:21:40;14.85;;;11.65;;
56712;SDS011;42589;45.536;9.032;2023-02-28T05:24:44;18.08;;;11.95;;
56712;SDS011;42589;45.536;9.032;2023-02-28T05:27:45;15.93;;;11.73;;
56712;SDS011;42589;45.536;9.032;2023-02-28T05:30:46;14.32;;;11.73;;
56712;SDS011;42589;45.536;9.032;2023-02-28T05:33:47;15.60;;;11.52;;
56712;SDS011;42589;45.536;9.032;2023-02-28T05:36:48;14.27;;;11.98;;
56712;SDS011;42589;45.536;9.032;2023-02-28T05:39:50;15.63;;;11.43;;
56712;SDS011;42589;45.536;9.032;2023-02-28T05:42:50;16.80;;;11.60;;
56712;SDS011;42589;45.536;9.032;2023-02-28T05:45:55;16.02;;;12.50;;
56712;SDS011;42589;45.536;9.032;2023-02-28T05:48:57;15.82;;;11.40;;
56712;SDS011;42589;45.536;9.032;2023-02-28T05:52:00;14.38;;;12.00;;
56712;SDS011;42589;45.536;9.032;2023-02-28T05:55:00;18.58;;;12.18;;
56712;SDS011;42589;45.536;9.032;2023-02-28T05:58:02;14.57;;;11.48;;
56712;SDS011;42589;45.536;9.032;2023-02-28T06:04:41;16.08;;;12.07;;
56712;SDS011;42589;45.536;9.032;2023-02-28T06:07:42;17.35;;;12.13;;
56712;SDS011;42589;45.536;9.032;2023-02-28T06:10:46;14.45;;;11.65;;
56712;SDS011;42589;45.536;9.032;2023-02-28T06:13:47;15.20;;;12.48;;
56712;SDS011;42589;45.536;9.032;2023-02-28T06:16:48;20.27;;;13.50;;
56712;SDS011;42589;45.536;9.032;2023-02-28T06:19:57;14.68;;;12.15;;
56712;SDS011;42589;45.536;9.032;2023-02-28T06:22:58;15.07;;;11.38;;
56712;SDS011;42589;45.536;9.032;2023-02-28T06:25:59;15.00;;;12.27;;
56712;SDS011;42589;45.536;9.032;2023-02-28T06:29:01;16.13;;;11.63;;
56712;SDS011;42589;45.536;9.032;2023-02-28T06:32:01;14.68;;;12.60;;
56712;SDS011;42589;45.536;9.032;2023-02-28T06:35:03;15.75;;;12.13;;
56712;SDS011;42589;45.536;9.032;2023-02-28T06:38:04;16.95;;;11.75;;
56712;SDS011;42589;45.536;9.032;2023-02-28T06:41:07;15.95;;;12.50;;
56712;SDS011;42589;45.536;9.032;2023-02-28T06:44:12;16.73;;;12.57;;
56712;SDS011;42589;45.536;9.032;2023-02-28T06:47:15;16.90;;;12.73;;
56712;SDS011;42589;45.536;9.032;2023-02-28T06:50:16;20.15;;;14.20;;
56712;SDS011;42589;45.536;9.032;2023-02-28T06:53:22;18.65;;;13.70;;
56712;SDS011;42589;45.536;9.032;2023-02-28T06:56:31;17.40;;;12.15;;
56712;SDS011;42589;45.536;9.032;2023-02-28T06:59:31;16.63;;;12.02;;
56712;SDS011;42589;45.536;9.032;2023-02-28T07:02:33;19.48;;;13.70;;
56712;SDS011;42589;45.536;9.032;2023-02-28T07:05:35;18.02;;;13.38;;
56712;SDS011;42589;45.536;9.032;2023-02-28T07:08:37;16.67;;;12.13;;
56712;SDS011;42589;45.536;9.032;2023-02-28T07:11:40;17.50;;;12.82;;
56712;SDS011;42589;45.536;9.032;2023-02-28T07:14:43;18.40;;;13.57;;
56712;SDS011;42589;45.536;9.032;2023-02-28T07:17:44;19.77;;;14.45;;
56712;SDS011;42589;45.536;9.032;2023-02-28T07:20:45;18.55;;;13.63;;
56712;SDS011;42589;45.536;9.032;2023-02-28T07:23:46;19.13;;;14.32;;
56712;SDS011;42589;45.536;9.032;2023-02-28T07:27:07;18.48;;;13.52;;
56712;SDS011;42589;45.536;9.032;2023-02-28T07:30:08;22.13;;;14.73;;
56712;SDS011;42589;45.536;9.032;2023-02-28T07:33:10;18.30;;;14.23;;
56712;SDS011;42589;45.536;9.032;2023-02-28T07:36:13;21.63;;;15.40;;
56712;SDS011;42589;45.536;9.032;2023-02-28T07:39:15;20.27;;;14.43;;
56712;SDS011;42589;45.536;9.032;2023-02-28T07:42:19;18.67;;;14.20;;
56712;SDS011;42589;45.536;9.032;2023-02-28T07:45:21;19.73;;;13.68;;
56712;SDS011;42589;45.536;9.032;2023-02-28T07:48:22;18.23;;;13.60;;
56712;SDS011;42589;45.536;9.032;2023-02-28T07:51:23;16.08;;;13.45;;
56712;SDS011;42589;45.536;9.032;2023-02-28T07:54:25;18.27;;;13.73;;
56712;SDS011;42589;45.536;9.032;2023-02-28T07:57:29;18.23;;;14.52;;
56712;SDS011;42589;45.536;9.032;2023-02-28T08:00:31;21.73;;;14.25;;
56712;SDS011;42589;45.536;9.032;2023-02-28T08:03:32;23.67;;;14.75;;
56712;SDS011;42589;45.536;9.032;2023-02-28T08:06:33;17.92;;;14.25;;
56712;SDS011;42589;45.536;9.032;2023-02-28T08:09:35;20.00;;;14.60;;
56712;SDS011;42589;45.536;9.032;2023-02-28T08:12:36;19.73;;;14.48;;
56712;SDS011;42589;45.536;9.032;2023-02-28T08:15:36;22.50;;;15.02;;
56712;SDS011;42589;45.536;9.032;2023-02-28T08:18:42;19.67;;;14.25;;
56712;SDS011;42589;45.536;9.032;2023-02-28T08:21:44;20.48;;;15.38;;
56712;SDS011;42589;45.536;9.032;2023-02-28T08:24:45;22.13;;;15.68;;
56712;SDS011;42589;45.536;9.032;2023-02-28T08:27:46;19.73;;;15.10;;
56712;SDS011;42589;45.536;9.032;2023-02-28T08:30:46;19.25;;;14.93;;
56712;SDS011;42589;45.536;9.032;2023-02-28T08:33:47;21.15;;;14.85;;
56712;SDS011;42589;45.536;9.032;2023-02-28T08:36:52;20.65;;;15.18;;
56712;SDS011;42589;45.536;9.032;2023-02-28T08:39:54;20.42;;;14.48;;
56712;SDS011;42589;45.536;9.032;2023-02-28T08:42:59;19.20;;;14.88;;
56712;SDS011;42589;45.536;9.032;2023-02-28T08:46:00;20.35;;;15.90;;
56712;SDS011;42589;45.536;9.032;2023-02-28T08:49:02;23.40;;;15.63;;
56712;SDS011;42589;45.536;9.032;2023-02-28T08:52:06;22.38;;;15.32;;
56712;SDS011;42589;45.536;9.032;2023-02-28T08:55:07;21.25;;;16.17;;
56712;SDS011;42589;45.536;9.032;2023-02-28T08:58:09;19.98;;;15.45;;
56712;SDS011;42589;45.536;9.032;2023-02-28T09:01:14;20.50;;;16.00;;
56712;SDS011;42589;45.536;9.032;2023-02-28T09:04:17;22.10;;;15.75;;
56712;SDS011;42589;45.536;9.032;2023-02-28T09:07:20;19.55;;;14.68;;
56712;SDS011;42589;45.536;9.032;2023-02-28T09:10:24;21.38;;;13.70;;
56712;SDS011;42589;45.536;9.032;2023-02-28T09:13:25;20.80;;;14.73;;
56712;SDS011;42589;45.536;9.032;2023-02-28T09:16:27;21.92;;;15.13;;
56712;SDS011;42589;45.536;9.032;2023-02-28T09:19:28;19.23;;;14.77;;
56712;SDS011;42589;45.536;9.032;2023-02-28T09:22:29;20.73;;;16.08;;
56712;SDS011;42589;45.536;9.032;2023-02-28T09:25:31;18.50;;;14.40;;
56712;SDS011;42589;45.536;9.032;2023-02-28T09:28:32;19.63;;;14.65;;
56712;SDS011;42589;45.536;9.032;2023-02-28T09:31:33;20.85;;;15.63;;
56712;SDS011;42589;45.536;9.032;2023-02-28T09:34:34;19.17;;;14.25;;
56712;SDS011;42589;45.536;9.032;2023-02-28T09:37:36;20.10;;;14.63;;
56712;SDS011;42589;45.536;9.032;2023-02-28T09:40:39;23.02;;;15.38;;
56712;SDS011;42589;45.536;9.032;2023-02-28T09:43:55;23.80;;;15.85;;
56712;SDS011;42589;45.536;9.032;2023-02-28T09:47:00;22.15;;;15.52;;
56712;SDS011;42589;45.536;9.032;2023-02-28T09:50:40;23.60;;;15.02;;
56712;SDS011;42589;45.536;9.032;2023-02-28T09:53:46;23.00;;;16.08;;
56712;SDS011;42589;45.536;9.032;2023-02-28T09:57:15;21.98;;;16.20;;
56712;SDS011;42589;45.536;9.032;2023-02-28T10:00:24;21.20;;;16.25;;
56712;SDS011;42589;45.536;9.032;2023-02-28T10:06:45;21.33;;;16.27;;
56712;SDS011;42589;45.536;9.032;2023-02-28T10:09:51;20.15;;;16.60;;
56712;SDS011;42589;45.536;9.032;2023-02-28T10:12:58;20.48;;;16.88;;
56712;SDS011;42589;45.536;9.032;2023-02-28T10:16:12;20.58;;;17.42;;
56712;SDS011;42589;45.536;9.032;2023-02-28T10:26:11;25.85;;;17.45;;
56712;SDS011;42589;45.536;9.032;2023-02-28T10:29:15;24.27;;;17.42;;
56712;SDS011;42589;45.536;9.032;2023-02-28T10:32:17;19.35;;;16.08;;
56712;SDS011;42589;45.536;9.032;2023-02-28T10:35:21;21.75;;;17.33;;
56712;SDS011;42589;45.536;9.032;2023-02-28T10:38:25;19.80;;;16.55;;
56712;SDS011;42589;45.536;9.032;2023-02-28T10:41:37;20.80;;;16.73;;
56712;SDS011;42589;45.536;9.032;2023-02-28T10:44:43;21.23;;;16.50;;
56712;SDS011;42589;45.536;9.032;2023-02-28T10:47:58;22.85;;;17.52;;
56712;SDS011;42589;45.536;9.032;2023-02-28T10:51:00;22.58;;;17.67;;
56712;SDS011;42589;45.536;9.032;2023-02-28T10:54:04;21.13;;;17.35;;
56712;SDS011;42589;45.536;9.032;2023-02-28T10:57:07;22.58;;;16.92;;
56712;SDS011;42589;45.536;9.032;2023-02-28T11:00:16;21.23;;;17.10;;
56712;SDS011;42589;45.536;9.032;2023-02-28T11:03:25;19.38;;;16.83;;
56712;SDS011;42589;45.536;9.032;2023-02-28T11:06:33;22.70;;;17.30;;
56712;SDS011;42589;45.536;9.032;2023-02-28T11:09:35;23.25;;;17.80;;
56712;SDS011;42589;45.536;9.032;2023-02-28T11:12:39;21.33;;;17.55;;
56712;SDS011;42589;45.536;9.032;2023-02-28T11:15:43;22.30;;;17.90;;
56712;SDS011;42589;45.536;9.032;2023-02-28T11:19:20;21.70;;;18.20;;
56712;SDS011;42589;45.536;9.032;2023-02-28T11:22:27;21.42;;;18.05;;
56712;SDS011;42589;45.536;9.032;2023-02-28T11:25:32;22.88;;;18.23;;
56712;SDS011;42589;45.536;9.032;2023-02-28T11:28:36;24.70;;;19.00;;
56712;SDS011;42589;45.536;9.032;2023-02-28T11:31:39;21.42;;;19.02;;
56712;SDS011;42589;45.536;9.032;2023-02-28T11:34:41;22.52;;;17.92;;
56712;SDS011;42589;45.536;9.032;2023-02-28T11:37:43;24.15;;;18.77;;
56712;SDS011;42589;45.536;9.032;2023-02-28T11:41:31;24.98;;;19.58;;
56712;SDS011;42589;45.536;9.032;2023-02-28T11:47:48;23.67;;;19.73;;
56712;SDS011;42589;45.536;9.032;2023-02-28T11:54:55;22.58;;;18.58;;
56712;SDS011;42589;45.536;9.032;2023-02-28T12:35:33;26.00;;;19.88;;
56712;SDS011;42589;45.536;9.032;2023-02-28T12:38:39;24.02;;;19.98;;
56712;SDS011;42589;45.536;9.032;2023-02-28T12:42:07;23.67;;;19.10;;
56712;SDS011;42589;45.536;9.032;2023-02-28T12:45:20;26.20;;;21.02;;
56712;SDS011;42589;45.536;9.032;2023-02-28T12:51:30;24.10;;;20.30;;
56712;SDS011;42589;45.536;9.032;2023-02-28T12:54:40;24.42;;;20.20;;
56712;SDS011;42589;45.536;9.032;2023-02-28T12:57:59;26.75;;;21.23;;
56712;SDS011;42589;45.536;9.032;2023-02-28T13:01:33;27.35;;;21.00;;
56712;SDS011;42589;45.536;9.032;2023-02-28T13:04:40;28.15;;;22.30;;
56712;SDS011;42589;45.536;9.032;2023-02-28T13:14:39;24.38;;;19.80;;
56712;SDS011;42589;45.536;9.032;2023-02-28T13:17:41;24.95;;;20.30;;
56712;SDS011;42589;45.536;9.032;2023-02-28T13:20:48;24.65;;;20.92;;
56712;SDS011;42589;45.536;9.032;2023-02-28T13:27:10;23.92;;;20.00;;
56712;SDS011;42589;45.536;9.032;2023-02-28T13:40:33;23.05;;;19.45;;
56712;SDS011;42589;45.536;9.032;2023-02-28T13:43:58;22.58;;;18.95;;
56712;SDS011;42589;45.536;9.032;2023-02-28T13:47:24;25.63;;;20.13;;
56712;SDS011;42589;45.536;9.032;2023-02-28T13:53:45;26.25;;;20.00;;
56712;SDS011;42589;45.536;9.032;2023-02-28T14:00:37;22.67;;;19.55;;
56712;SDS011;42589;45.536;9.032;2023-02-28T14:07:37;22.98;;;18.42;;
56712;SDS011;42589;45.536;9.032;2023-02-28T14:10:45;24.60;;;19.48;;
56712;SDS011;42589;45.536;9.032;2023-02-28T14:13:50;24.45;;;20.45;;
56712;SDS011;42589;45.536;9.032;2023-02-28T14:16:51;24.23;;;19.00;;
56712;SDS011;42589;45.536;9.032;2023-02-28T14:19:52;26.70;;;19.10;;
56712;SDS011;42589;45.536;9.032;2023-02-28T14:29:54;23.55;;;19.33;;
56712;SDS011;42589;45.536;9.032;2023-02-28T14:33:27;22.33;;;18.33;;
56712;SDS011;42589;45.536;9.032;2023-02-28T14:36:49;25.17;;;19.42;;
56712;SDS011;42589;45.536;9.032;2023-02-28T14:39:59;24.50;;;19.13;;
56712;SDS011;42589;45.536;9.032;2023-02-28T14:43:03;23.60;;;18.60;;
56712;SDS011;42589;45.536;9.032;2023-02-28T14:46:06;22.95;;;18.88;;
56712;SDS011;42589;45.536;9.032;2023-02-28T14:49:12;23.13;;;19.05;;
56712;SDS011;42589;45.536;9.032;2023-02-28T14:52:20;22.88;;;19.33;;
56712;SDS011;42589;45.536;9.032;2023-02-28T14:55:32;23.08;;;18.83;;
56712;SDS011;42589;45.536;9.032;2023-02-28T14:58:35;23.95;;;18.85;;
56712;SDS011;42589;45.536;9.032;2023-02-28T15:01:35;22.48;;;18.33;;
56712;SDS011;42589;45.536;9.032;2023-02-28T15:04:36;26.98;;;19.08;;
56712;SDS011;42589;45.536;9.032;2023-02-28T15:07:37;21.70;;;17.42;;
56712;SDS011;42589;45.536;9.032;2023-02-28T15:10:39;23.70;;;18.73;;
56712;SDS011;42589;45.536;9.032;2023-02-28T15:14:20;23.50;;;19.17;;
56712;SDS011;42589;45.536;9.032;2023-02-28T15:17:22;24.48;;;19.40;;
56712;SDS011;42589;45.536;9.032;2023-02-28T15:20:25;22.92;;;18.42;;
56712;SDS011;42589;45.536;9.032;2023-02-28T15:23:27;22.25;;;17.83;;
56712;SDS011;42589;45.536;9.032;2023-02-28T15:26:32;23.30;;;19.23;;
56712;SDS011;42589;45.536;9.032;2023-02-28T15:29:42;22.92;;;18.77;;
56712;SDS011;42589;45.536;9.032;2023-02-28T15:33:01;23.55;;;19.40;;
56712;SDS011;42589;45.536;9.032;2023-02-28T15:36:13;24.60;;;19.95;;
56712;SDS011;42589;45.536;9.032;2023-02-28T15:39:21;23.08;;;18.42;;
56712;SDS011;42589;45.536;9.032;2023-02-28T15:42:28;22.30;;;19.13;;
56712;SDS011;42589;45.536;9.032;2023-02-28T15:45:36;24.38;;;18.85;;
56712;SDS011;42589;45.536;9.032;2023-02-28T15:51:56;24.08;;;19.20;;
56712;SDS011;42589;45.536;9.032;2023-02-28T15:54:59;23.58;;;18.90;;
56712;SDS011;42589;45.536;9.032;2023-02-28T15:58:11;22.30;;;18.38;;
56712;SDS011;42589;45.536;9.032;2023-02-28T16:01:23;21.90;;;18.77;;
56712;SDS011;42589;45.536;9.032;2023-02-28T16:04:26;24.95;;;19.67;;
56712;SDS011;42589;45.536;9.032;2023-02-28T16:07:31;24.25;;;18.85;;
56712;SDS011;42589;45.536;9.032;2023-02-28T16:10:32;26.98;;;19.65;;
56712;SDS011;42589;45.536;9.032;2023-02-28T16:13:33;24.52;;;19.55;;
56712;SDS011;42589;45.536;9.032;2023-02-28T16:16:41;22.70;;;18.92;;
56712;SDS011;42589;45.536;9.032;2023-02-28T16:19:43;23.13;;;18.70;;
56712;SDS011;42589;45.536;9.032;2023-02-28T16:22:45;25.80;;;19.20;;
56712;SDS011;42589;45.536;9.032;2023-02-28T16:25:45;22.80;;;18.98;;
56712;SDS011;42589;45.536;9.032;2023-02-28T16:28:46;24.23;;;20.05;;
56712;SDS011;42589;45.536;9.032;2023-02-28T16:31:47;25.40;;;19.02;;
56712;SDS011;42589;45.536;9.032;2023-02-28T16:34:48;24.08;;;19.98;;
56712;SDS011;42589;45.536;9.032;2023-02-28T16:37:52;27.70;;;19.83;;
56712;SDS011;42589;45.536;9.032;2023-02-28T16:40:55;24.45;;;19.63;;
56712;SDS011;42589;45.536;9.032;2023-02-28T16:43:58;25.60;;;20.33;;
56712;SDS011;42589;45.536;9.032;2023-02-28T16:47:00;27.20;;;19.92;;
56712;SDS011;42589;45.536;9.032;2023-02-28T16:50:08;26.33;;;20.40;;
56712;SDS011;42589;45.536;9.032;2023-02-28T16:53:12;25.60;;;19.92;;
56712;SDS011;42589;45.536;9.032;2023-02-28T16:56:14;26.98;;;20.75;;
56712;SDS011;42589;45.536;9.032;2023-02-28T16:59:20;25.40;;;20.75;;
56712;SDS011;42589;45.536;9.032;2023-02-28T17:05:23;25.90;;;19.98;;
56712;SDS011;42589;45.536;9.032;2023-02-28T17:08:27;25.67;;;20.63;;
56712;SDS011;42589;45.536;9.032;2023-02-28T17:11:30;26.00;;;21.17;;
56712;SDS011;42589;45.536;9.032;2023-02-28T17:14:31;28.20;;;21.95;;
56712;SDS011;42589;45.536;9.032;2023-02-28T17:17:32;27.80;;;21.85;;
56712;SDS011;42589;45.536;9.032;2023-02-28T17:20:33;28.35;;;21.95;;
56712;SDS011;42589;45.536;9.032;2023-02-28T17:23:34;27.17;;;21.30;;
56712;SDS011;42589;45.536;9.032;2023-02-28T17:26:38;27.85;;;21.60;;
56712;SDS011;42589;45.536;9.032;2023-02-28T17:29:40;28.83;;;22.27;;
56712;SDS011;42589;45.536;9.032;2023-02-28T17:32:41;25.05;;;20.92;;
56712;SDS011;42589;45.536;9.032;2023-02-28T17:35:42;31.02;;;22.45;;
56712;SDS011;42589;45.536;9.032;2023-02-28T17:38:43;29.55;;;21.00;;
56712;SDS011;42589;45.536;9.032;2023-02-28T17:41:44;31.17;;;22.65;;
56712;SDS011;42589;45.536;9.032;2023-02-28T17:44:45;27.63;;;21.27;;
56712;SDS011;42589;45.536;9.032;2023-02-28T17:50:50;28.02;;;21.63;;
56712;SDS011;42589;45.536;9.032;2023-02-28T17:53:51;31.92;;;23.10;;
56712;SDS011;42589;45.536;9.032;2023-02-28T17:56:52;27.45;;;21.52;;
56712;SDS011;42589;45.536;9.032;2023-02-28T17:59:53;31.60;;;23.20;;
56712;SDS011;42589;45.536;9.032;2023-02-28T18:02:55;28.60;;;22.17;;
56712;SDS011;42589;45.536;9.032;2023-02-28T18:05:58;30.63;;;22.63;;
56712;SDS011;42589;45.536;9.032;2023-02-28T18:09:00;30.95;;;22.70;;
56712;SDS011;42589;45.536;9.032;2023-02-28T18:12:00;32.28;;;22.38;;
56712;SDS011;42589;45.536;9.032;2023-02-28T18:15:01;33.15;;;24.00;;
56712;SDS011;42589;45.536;9.032;2023-02-28T18:18:02;29.73;;;22.67;;
56712;SDS011;42589;45.536;9.032;2023-02-28T18:21:04;30.63;;;23.50;;
56712;SDS011;42589;45.536;9.032;2023-02-28T18:24:05;30.48;;;23.17;;
56712;SDS011;42589;45.536;9.032;2023-02-28T18:27:06;33.13;;;24.08;;
56712;SDS011;42589;45.536;9.032;2023-02-28T18:30:11;33.53;;;24.38;;
56712;SDS011;42589;45.536;9.032;2023-02-28T18:33:20;30.35;;;24.60;;
56712;SDS011;42589;45.536;9.032;2023-02-28T18:36:21;30.23;;;23.52;;
56712;SDS011;42589;45.536;9.032;2023-02-28T18:39:23;32.90;;;24.38;;
56712;SDS011;42589;45.536;9.032;2023-02-28T18:42:24;31.42;;;22.95;;
56712;SDS011;42589;45.536;9.032;2023-02-28T18:45:25;41.58;;;29.63;;
56712;SDS011;42589;45.536;9.032;2023-02-28T18:48:29;30.50;;;23.27;;
56712;SDS011;42589;45.536;9.032;2023-02-28T18:51:30;34.85;;;22.20;;
56712;SDS011;42589;45.536;9.032;2023-02-28T18:54:34;31.58;;;22.80;;
56712;SDS011;42589;45.536;9.032;2023-02-28T18:57:37;29.58;;;22.83;;
56712;SDS011;42589;45.536;9.032;2023-02-28T19:00:39;31.02;;;22.60;;
56712;SDS011;42589;45.536;9.032;2023-02-28T19:03:40;31.60;;;23.30;;
56712;SDS011;42589;45.536;9.032;2023-02-28T19:06:41;26.77;;;21.50;;
56712;SDS011;42589;45.536;9.032;2023-02-28T19:09:41;30.38;;;21.90;;
56712;SDS011;42589;45.536;9.032;2023-02-28T19:12:42;30.25;;;23.58;;
56712;SDS011;42589;45.536;9.032;2023-02-28T19:15:43;33.47;;;22.80;;
56712;SDS011;42589;45.536;9.032;2023-02-28T19:18:45;30.85;;;23.48;;
56712;SDS011;42589;45.536;9.032;2023-02-28T19:21:47;31.15;;;22.73;;
56712;SDS011;42589;45.536;9.032;2023-02-28T19:24:48;27.70;;;21.38;;
56712;SDS011;42589;45.536;9.032;2023-02-28T19:27:53;29.58;;;22.02;;
56712;SDS011;42589;45.536;9.032;2023-02-28T19:30:54;29.90;;;23.23;;
56712;SDS011;42589;45.536;9.032;2023-02-28T19:33:54;29.15;;;22.27;;
56712;SDS011;42589;45.536;9.032;2023-02-28T19:36:56;28.17;;;21.88;;
56712;SDS011;42589;45.536;9.032;2023-02-28T19:39:57;30.95;;;22.67;;
56712;SDS011;42589;45.536;9.032;2023-02-28T19:42:57;32.90;;;23.45;;
56712;SDS011;42589;45.536;9.032;2023-02-28T19:45:58;32.72;;;23.77;;
56712;SDS011;42589;45.536;9.032;2023-02-28T19:48:59;33.35;;;23.55;;
56712;SDS011;42589;45.536;9.032;2023-02-28T19:52:00;33.15;;;23.38;;
56712;SDS011;42589;45.536;9.032;2023-02-28T19:55:01;33.20;;;24.88;;
56712;SDS011;42589;45.536;9.032;2023-02-28T19:58:02;33.10;;;24.35;;
56712;SDS011;42589;45.536;9.032;2023-02-28T20:01:10;34.83;;;25.60;;
56712;SDS011;42589;45.536;9.032;2023-02-28T20:04:12;35.35;;;25.63;;
56712;SDS011;42589;45.536;9.032;2023-02-28T20:07:16;34.88;;;26.45;;
56712;SDS011;42589;45.536;9.032;2023-02-28T20:10:19;41.70;;;29.55;;
56712;SDS011;42589;45.536;9.032;2023-02-28T20:13:19;41.67;;;32.08;;
56712;SDS011;42589;45.536;9.032;2023-02-28T20:16:20;45.50;;;31.98;;
56712;SDS011;42589;45.536;9.032;2023-02-28T20:19:22;45.35;;;32.20;;
56712;SDS011;42589;45.536;9.032;2023-02-28T20:22:23;43.83;;;32.13;;
56712;SDS011;42589;45.536;9.032;2023-02-28T20:25:24;41.47;;;30.08;;
56712;SDS011;42589;45.536;9.032;2023-02-28T20:28:25;43.17;;;30.73;;
56712;SDS011;42589;45.536;9.032;2023-02-28T20:31:27;49.72;;;35.50;;
56712;SDS011;42589;45.536;9.032;2023-02-28T20:34:29;44.08;;;32.75;;
56712;SDS011;42589;45.536;9.032;2023-02-28T20:37:29;43.85;;;30.30;;